createdAt,value
2022-12-31T00:01:44.771Z,100.00
2022-12-31T00:04:12.487Z,100.00
2022-12-31T00:06:40.247Z,100.00
2022-12-31T00:09:09.124Z,100.00
2022-12-31T00:11:38.973Z,100.00
2022-12-31T00:14:07.757Z,100.00
2022-12-31T00:16:37.612Z,100.00
2022-12-31T00:19:08.840Z,100.00
2022-12-31T00:21:37.520Z,100.00
2022-12-31T00:24:06.615Z,100.00
2022-12-31T00:26:36.245Z,100.00
2022-12-31T00:29:06.391Z,100.00
2022-12-31T00:31:36.093Z,100.00
2022-12-31T00:34:04.920Z,100.00
2022-12-31T00:36:34.758Z,100.00
2022-12-31T00:39:04.492Z,100.00
2022-12-31T00:41:33.045Z,100.00
2022-12-31T00:44:01.537Z,100.00
2022-12-31T00:46:31.649Z,100.00
2022-12-31T00:48:59.383Z,100.00
2022-12-31T00:51:28.253Z,100.00
2022-12-31T00:53:56.825Z,100.00
2022-12-31T00:56:26.635Z,100.00
2022-12-31T00:58:55.261Z,100.00
2022-12-31T01:01:25.004Z,100.00
2022-12-31T01:03:56.382Z,100.00
2022-12-31T01:06:24.550Z,100.00
2022-12-31T01:08:53.665Z,100.00
2022-12-31T01:11:22.353Z,100.00
2022-12-31T01:13:53.247Z,100.00
2022-12-31T01:16:23.403Z,100.00
2022-12-31T01:18:51.746Z,100.00
2022-12-31T01:21:21.517Z,100.00
2022-12-31T01:23:49.391Z,100.00
2022-12-31T01:26:19.149Z,100.00
2022-12-31T01:28:47.218Z,100.00
2022-12-31T01:31:18.512Z,100.00
2022-12-31T01:33:46.996Z,100.00
2022-12-31T01:36:20.359Z,100.00
2022-12-31T01:38:54.783Z,100.00
2022-12-31T01:41:24.519Z,100.00
2022-12-31T01:43:55.126Z,100.00
2022-12-31T01:46:28.126Z,100.00
2022-12-31T01:49:00.299Z,100.00
2022-12-31T01:51:31.967Z,100.00
2022-12-31T01:54:03.905Z,100.00
2022-12-31T01:56:31.906Z,100.00
2022-12-31T01:59:00.432Z,100.00
2022-12-31T02:01:32.036Z,100.00
2022-12-31T02:04:06.271Z,100.00
2022-12-31T02:06:38.983Z,100.00
2022-12-31T02:09:08.514Z,100.00
2022-12-31T02:11:37.987Z,100.00
2022-12-31T02:14:09.473Z,100.00
2022-12-31T02:16:44.463Z,100.00
2022-12-31T02:19:42.188Z,100.00
2022-12-31T02:22:22.915Z,100.00
2022-12-31T02:25:21.388Z,100.00
2022-12-31T02:27:58.990Z,100.00
2022-12-31T02:30:31.913Z,100.00
2022-12-31T02:33:12.201Z,100.00
2022-12-31T02:35:48.250Z,100.00
2022-12-31T02:38:20.932Z,100.00
2022-12-31T02:40:49.124Z,100.00
2022-12-31T02:43:16.870Z,100.00
2022-12-31T02:45:49.790Z,100.00
2022-12-31T02:48:34.183Z,100.00
2022-12-31T02:51:13.193Z,100.00
2022-12-31T02:54:05.053Z,100.00
2022-12-31T02:56:39.922Z,100.00
2022-12-31T02:59:29.948Z,100.00
2022-12-31T03:02:17.163Z,100.00
2022-12-31T03:04:49.563Z,100.00
2022-12-31T03:07:21.595Z,100.00
2022-12-31T03:09:50.062Z,100.00
2022-12-31T03:12:36.671Z,100.00
2022-12-31T03:15:06.550Z,100.00
2022-12-31T03:17:35.698Z,100.00
2022-12-31T03:20:21.321Z,100.00
2022-12-31T03:22:49.097Z,100.00
2022-12-31T03:25:33.532Z,100.00
2022-12-31T03:28:02.356Z,100.00
2022-12-31T03:30:30.831Z,100.00
2022-12-31T03:33:00.492Z,100.00
2022-12-31T03:35:30.283Z,100.00
2022-12-31T03:37:58.504Z,100.00
2022-12-31T03:40:28.337Z,100.00
2022-12-31T03:42:56.893Z,100.00
2022-12-31T03:45:25.175Z,100.00
2022-12-31T03:47:53.165Z,100.00
2022-12-31T03:50:22.245Z,100.00
2022-12-31T03:52:50.025Z,100.00
2022-12-31T03:55:17.917Z,100.00
2022-12-31T03:57:45.609Z,100.00
2022-12-31T04:00:17.418Z,100.00
2022-12-31T04:02:45.267Z,100.00
2022-12-31T04:05:13.536Z,100.00
2022-12-31T04:07:43.261Z,100.00
2022-12-31T04:10:12.930Z,100.00
2022-12-31T04:12:41.264Z,100.00
2022-12-31T04:15:10.497Z,100.00
2022-12-31T04:17:38.446Z,100.00
2022-12-31T04:20:07.049Z,100.00
2022-12-31T04:22:34.667Z,100.00
2022-12-31T04:25:03.712Z,100.00
2022-12-31T04:27:31.349Z,100.00
2022-12-31T04:29:58.967Z,100.00
2022-12-31T04:32:26.670Z,100.00
2022-12-31T04:34:54.295Z,100.00
2022-12-31T04:37:21.924Z,100.00
2022-12-31T04:39:49.536Z,100.00
2022-12-31T04:42:18.551Z,100.00
2022-12-31T04:44:46.198Z,100.00
2022-12-31T04:47:16.283Z,100.00
2022-12-31T04:49:47.766Z,100.00
2022-12-31T04:52:15.352Z,100.00
2022-12-31T04:54:42.978Z,100.00
2022-12-31T04:57:10.610Z,100.00
2022-12-31T04:59:39.646Z,100.00
2022-12-31T05:02:07.532Z,100.00
2022-12-31T05:04:35.375Z,100.00
2022-12-31T05:07:03.027Z,100.00
2022-12-31T05:09:31.026Z,100.00
2022-12-31T05:11:58.868Z,100.00
2022-12-31T05:14:26.547Z,100.00
2022-12-31T05:16:55.940Z,100.00
2022-12-31T05:19:23.729Z,100.00
2022-12-31T05:22:06.036Z,100.00
2022-12-31T05:24:33.744Z,100.00
2022-12-31T05:27:01.385Z,100.00
2022-12-31T05:29:29.072Z,100.00
2022-12-31T05:31:58.096Z,100.00
2022-12-31T05:34:25.772Z,100.00
2022-12-31T05:36:53.753Z,100.00
2022-12-31T05:39:22.129Z,100.00
2022-12-31T05:41:49.827Z,100.00
2022-12-31T05:44:17.501Z,100.00
2022-12-31T05:46:45.251Z,100.00
2022-12-31T05:49:14.257Z,100.00
2022-12-31T05:51:41.930Z,100.00
2022-12-31T05:54:09.663Z,100.00
2022-12-31T05:56:37.829Z,100.00
2022-12-31T05:59:05.880Z,100.00
2022-12-31T06:01:34.843Z,100.00
2022-12-31T06:04:02.641Z,100.00
2022-12-31T06:06:31.698Z,100.00
2022-12-31T06:08:59.485Z,100.00
2022-12-31T06:11:27.191Z,100.00
2022-12-31T06:13:54.896Z,100.00
2022-12-31T06:16:22.675Z,100.00
2022-12-31T06:18:50.746Z,100.00
2022-12-31T06:21:19.043Z,100.00
2022-12-31T06:23:48.284Z,100.00
2022-12-31T06:26:18.031Z,100.00
2022-12-31T06:28:45.697Z,100.00
2022-12-31T06:31:15.103Z,100.00
2022-12-31T06:33:43.246Z,100.00
2022-12-31T06:36:14.723Z,100.00
2022-12-31T06:38:44.148Z,100.00
2022-12-31T06:41:15.005Z,100.00
2022-12-31T06:43:44.420Z,100.00
2022-12-31T06:46:14.125Z,100.00
2022-12-31T06:48:44.608Z,100.00
2022-12-31T06:51:17.344Z,100.00
2022-12-31T06:53:45.376Z,100.00
2022-12-31T06:56:18.865Z,100.00
2022-12-31T06:58:47.117Z,100.00
2022-12-31T07:01:32.149Z,100.00
2022-12-31T07:04:06.183Z,100.00
2022-12-31T07:06:41.070Z,100.00
2022-12-31T07:09:17.493Z,100.00
2022-12-31T07:11:55.623Z,100.00
2022-12-31T07:14:34.816Z,100.00
2022-12-31T07:17:11.971Z,100.00
2022-12-31T07:19:55.462Z,100.00
2022-12-31T07:22:25.677Z,100.00
2022-12-31T07:24:54.071Z,100.00
2022-12-31T07:27:45.252Z,100.00
2022-12-31T07:30:16.851Z,100.00
2022-12-31T07:33:07.362Z,100.00
2022-12-31T07:35:43.255Z,100.00
2022-12-31T07:38:21.635Z,100.00
2022-12-31T07:40:58.000Z,100.00
2022-12-31T07:43:36.251Z,100.00
2022-12-31T07:46:12.677Z,100.00
2022-12-31T07:48:40.798Z,100.00
2022-12-31T07:51:11.551Z,100.00
2022-12-31T07:53:40.544Z,100.00
2022-12-31T07:56:09.817Z,100.00
2022-12-31T07:58:52.117Z,100.00
2022-12-31T08:01:31.027Z,100.00
2022-12-31T08:04:05.919Z,100.00
2022-12-31T08:06:45.403Z,100.00
2022-12-31T08:09:27.388Z,100.00
2022-12-31T08:11:58.039Z,100.00
2022-12-31T08:14:29.718Z,100.00
2022-12-31T08:16:58.457Z,100.00
2022-12-31T08:19:28.583Z,100.00
2022-12-31T08:22:09.288Z,100.00
2022-12-31T08:24:52.184Z,100.00
2022-12-31T08:27:27.197Z,100.00
2022-12-31T08:30:03.831Z,100.00
2022-12-31T08:32:40.137Z,100.00
2022-12-31T08:35:23.611Z,100.00
2022-12-31T08:38:00.307Z,100.00
2022-12-31T08:40:32.967Z,100.00
2022-12-31T08:43:18.507Z,100.00
2022-12-31T08:45:51.058Z,100.00
2022-12-31T08:48:30.043Z,100.00
2022-12-31T08:50:58.333Z,100.00
2022-12-31T08:53:26.499Z,100.00
2022-12-31T08:55:59.699Z,100.00
2022-12-31T08:58:41.605Z,100.00
2022-12-31T09:01:13.111Z,100.00
2022-12-31T09:03:53.771Z,100.00
2022-12-31T09:06:28.560Z,100.00
2022-12-31T09:09:01.692Z,100.00
2022-12-31T09:11:35.080Z,100.00
2022-12-31T09:14:18.480Z,100.00
2022-12-31T09:16:57.413Z,100.00
2022-12-31T09:19:25.068Z,100.00
2022-12-31T09:21:53.111Z,100.00
2022-12-31T09:24:21.262Z,100.00
2022-12-31T09:26:58.327Z,100.00
2022-12-31T09:29:42.310Z,100.00
2022-12-31T09:32:20.599Z,100.00
2022-12-31T09:34:55.165Z,100.00
2022-12-31T09:37:34.676Z,100.00
2022-12-31T09:40:11.898Z,100.00
2022-12-31T09:43:30.978Z,100.00
2022-12-31T09:46:30.717Z,100.00
2022-12-31T09:49:26.626Z,100.00
2022-12-31T09:52:07.529Z,100.00
2022-12-31T09:54:51.043Z,100.00
2022-12-31T09:57:31.415Z,100.00
2022-12-31T10:00:03.843Z,100.00
2022-12-31T10:02:58.461Z,100.00
2022-12-31T10:05:57.610Z,100.00
2022-12-31T10:08:47.760Z,100.00
2022-12-31T10:11:20.637Z,100.00
2022-12-31T10:14:03.007Z,100.00
2022-12-31T10:16:56.723Z,100.00
2022-12-31T10:19:51.406Z,100.00
2022-12-31T10:22:41.254Z,100.00
2022-12-31T10:25:38.831Z,100.00
2022-12-31T10:28:19.198Z,100.00
2022-12-31T10:30:59.040Z,100.00
2022-12-31T10:33:39.310Z,100.00
2022-12-31T10:36:12.889Z,100.00
2022-12-31T10:38:52.199Z,100.00
2022-12-31T10:41:48.659Z,100.00
2022-12-31T10:44:47.379Z,100.00
2022-12-31T10:47:38.943Z,100.00
2022-12-31T10:50:49.882Z,98.72
2022-12-31T10:53:50.648Z,100.00
2022-12-31T10:56:47.989Z,99.92
2022-12-31T10:59:35.032Z,100.00
2022-12-31T11:02:24.385Z,98.03
2022-12-31T11:05:37.368Z,98.27
2022-12-31T11:08:21.614Z,96.32
2022-12-31T11:11:12.907Z,95.83
2022-12-31T11:14:10.981Z,95.33
2022-12-31T11:16:49.226Z,94.21
2022-12-31T11:19:22.503Z,92.99
2022-12-31T11:22:04.541Z,90.85
2022-12-31T11:24:43.496Z,91.67
2022-12-31T11:27:25.868Z,89.21
2022-12-31T11:30:05.027Z,89.26
2022-12-31T11:32:50.470Z,89.13
2022-12-31T11:35:32.843Z,89.55
2022-12-31T11:38:15.156Z,86.41
2022-12-31T11:40:54.127Z,87.48
2022-12-31T11:43:29.781Z,86.06
2022-12-31T11:46:25.793Z,84.20
2022-12-31T11:49:05.815Z,82.58
2022-12-31T11:51:50.180Z,83.39
2022-12-31T11:54:52.529Z,82.63
2022-12-31T11:57:27.173Z,80.24
2022-12-31T12:00:00.316Z,80.24
2022-12-31T12:02:30.808Z,79.83
2022-12-31T12:05:08.288Z,81.98
2022-12-31T12:07:38.144Z,81.87
2022-12-31T12:10:18.046Z,81.50
2022-12-31T12:12:45.635Z,82.45
2022-12-31T12:15:21.157Z,83.97
2022-12-31T12:17:53.161Z,82.28
2022-12-31T12:20:28.455Z,83.63
2022-12-31T12:22:58.325Z,84.69
2022-12-31T12:25:28.025Z,83.88
2022-12-31T12:27:55.969Z,84.27
2022-12-31T12:30:27.105Z,84.50
2022-12-31T12:32:57.569Z,82.47
2022-12-31T12:35:27.809Z,82.94
2022-12-31T12:38:03.647Z,82.42
2022-12-31T12:40:34.322Z,80.82
2022-12-31T12:43:03.492Z,81.45
2022-12-31T12:45:47.763Z,82.07
2022-12-31T12:48:26.678Z,78.45
2022-12-31T12:50:54.499Z,77.73
2022-12-31T12:53:34.656Z,78.23
2022-12-31T12:56:13.273Z,80.53
2022-12-31T12:58:54.911Z,79.72
2022-12-31T13:01:34.098Z,78.32
2022-12-31T13:04:35.710Z,78.10
2022-12-31T13:07:12.900Z,80.28
2022-12-31T13:10:04.357Z,81.46
2022-12-31T13:13:05.307Z,79.71
2022-12-31T13:15:34.567Z,80.00
2022-12-31T13:18:14.802Z,78.72
2022-12-31T13:20:48.766Z,78.77
2022-12-31T13:23:23.054Z,80.25
2022-12-31T13:26:08.038Z,77.94
2022-12-31T13:28:40.335Z,78.86
2022-12-31T13:31:14.207Z,78.92
2022-12-31T13:33:47.977Z,78.43
2022-12-31T13:36:18.370Z,79.27
2022-12-31T13:38:49.508Z,79.63
2022-12-31T13:41:22.145Z,79.06
2022-12-31T13:43:56.748Z,78.40
2022-12-31T13:46:29.275Z,79.22
2022-12-31T13:49:02.557Z,77.81
2022-12-31T13:51:41.778Z,78.77
2022-12-31T13:54:22.947Z,78.87
2022-12-31T13:56:52.993Z,78.71
2022-12-31T13:59:24.784Z,79.73
2022-12-31T14:01:57.085Z,78.88
2022-12-31T14:04:34.457Z,78.96
2022-12-31T14:07:07.980Z,79.60
2022-12-31T14:09:36.450Z,78.93
2022-12-31T14:12:22.855Z,77.63
2022-12-31T14:14:59.859Z,78.41
2022-12-31T14:17:39.020Z,78.71
2022-12-31T14:20:16.989Z,78.42
2022-12-31T14:22:51.501Z,77.78
2022-12-31T14:25:24.554Z,77.33
2022-12-31T14:27:55.605Z,77.65
2022-12-31T14:30:27.002Z,77.16
2022-12-31T14:33:26.027Z,76.82
2022-12-31T14:36:10.586Z,77.48
2022-12-31T14:38:52.352Z,77.96
2022-12-31T14:41:40.840Z,76.66
2022-12-31T14:44:27.888Z,78.06
2022-12-31T14:47:06.742Z,76.61
2022-12-31T14:49:43.017Z,77.02
2022-12-31T14:52:22.697Z,76.81
2022-12-31T14:55:00.520Z,76.81
2022-12-31T14:58:01.563Z,75.52
2022-12-31T15:00:32.432Z,77.49
2022-12-31T15:03:02.310Z,77.07
2022-12-31T15:05:32.020Z,76.63
2022-12-31T15:08:21.943Z,76.42
2022-12-31T15:11:12.090Z,76.88
2022-12-31T15:13:53.057Z,77.99
2022-12-31T15:16:33.910Z,77.48
2022-12-31T15:19:30.962Z,78.17
2022-12-31T15:22:06.093Z,77.71
2022-12-31T15:24:35.224Z,78.29
2022-12-31T15:27:06.251Z,76.95
2022-12-31T15:29:37.580Z,76.71
2022-12-31T15:32:08.745Z,76.96
2022-12-31T15:34:37.506Z,76.36
2022-12-31T15:37:07.715Z,75.46
2022-12-31T15:39:44.897Z,75.71
2022-12-31T15:42:38.644Z,76.23
2022-12-31T15:45:15.817Z,74.99
2022-12-31T15:47:47.654Z,75.00
2022-12-31T15:50:18.975Z,76.25
2022-12-31T15:52:51.410Z,75.83
2022-12-31T15:55:27.156Z,75.58
2022-12-31T15:58:00.136Z,75.19
2022-12-31T16:00:38.505Z,77.23
2022-12-31T16:03:20.831Z,75.72
2022-12-31T16:05:49.136Z,76.14
2022-12-31T16:08:20.974Z,75.49
2022-12-31T16:10:50.156Z,75.97
2022-12-31T16:13:22.790Z,74.96
2022-12-31T16:15:52.746Z,74.80
2022-12-31T16:18:23.011Z,74.71
2022-12-31T16:20:51.864Z,74.94
2022-12-31T16:23:23.468Z,74.82
2022-12-31T16:25:58.795Z,75.29
2022-12-31T16:28:31.413Z,74.95
2022-12-31T16:31:02.674Z,74.62
2022-12-31T16:33:32.151Z,74.61
2022-12-31T16:36:01.138Z,74.93
2022-12-31T16:38:33.634Z,75.70
2022-12-31T16:41:17.700Z,76.18
2022-12-31T16:43:47.145Z,76.29
2022-12-31T16:46:20.179Z,75.57
2022-12-31T16:48:50.583Z,74.85
2022-12-31T16:51:21.134Z,74.05
2022-12-31T16:53:50.142Z,73.64
2022-12-31T16:56:25.935Z,73.63
2022-12-31T16:59:01.324Z,72.98
2022-12-31T17:01:33.503Z,73.63
2022-12-31T17:04:05.011Z,72.62
2022-12-31T17:06:33.580Z,73.62
2022-12-31T17:09:13.993Z,72.90
2022-12-31T17:11:51.387Z,71.98
2022-12-31T17:14:22.932Z,72.29
2022-12-31T17:17:02.178Z,72.75
2022-12-31T17:19:44.834Z,74.02
2022-12-31T17:22:21.712Z,72.30
2022-12-31T17:24:52.921Z,72.57
2022-12-31T17:27:21.877Z,72.58
2022-12-31T17:29:49.539Z,73.23
2022-12-31T17:32:31.999Z,73.95
2022-12-31T17:34:59.844Z,73.87
2022-12-31T17:37:29.518Z,73.81
2022-12-31T17:40:17.371Z,73.73
2022-12-31T17:42:50.317Z,73.86
2022-12-31T17:45:21.694Z,73.94
2022-12-31T17:47:52.528Z,73.98
2022-12-31T17:50:22.651Z,74.71
2022-12-31T17:52:50.618Z,75.06
2022-12-31T17:55:18.198Z,74.33
2022-12-31T17:57:52.183Z,74.44
2022-12-31T18:00:21.877Z,73.55
2022-12-31T18:02:49.673Z,72.60
2022-12-31T18:05:19.343Z,72.26
2022-12-31T18:07:47.037Z,72.11
2022-12-31T18:10:16.859Z,71.42
2022-12-31T18:12:45.933Z,72.23
2022-12-31T18:15:18.076Z,71.83
2022-12-31T18:17:46.076Z,71.39
2022-12-31T18:20:14.038Z,69.51
2022-12-31T18:22:43.135Z,68.86
2022-12-31T18:25:14.628Z,69.00
2022-12-31T18:27:42.409Z,67.91
2022-12-31T18:30:10.986Z,67.47
2022-12-31T18:32:42.254Z,66.81
2022-12-31T18:35:40.292Z,66.01
2022-12-31T18:38:02.995Z,65.38
2022-12-31T18:40:30.796Z,65.28
2022-12-31T18:43:04.504Z,65.16
2022-12-31T18:45:32.715Z,64.81
2022-12-31T18:48:01.743Z,64.45
2022-12-31T18:50:29.428Z,64.79
2022-12-31T18:52:57.070Z,64.60
2022-12-31T18:55:33.042Z,64.87
2022-12-31T18:58:00.698Z,65.16
2022-12-31T19:00:28.349Z,65.01
2022-12-31T19:02:56.027Z,64.24
2022-12-31T19:05:27.428Z,64.57
2022-12-31T19:07:55.704Z,64.81
2022-12-31T19:10:24.297Z,64.93
2022-12-31T19:12:52.208Z,65.19
2022-12-31T19:15:25.883Z,65.63
2022-12-31T19:17:53.549Z,66.02
2022-12-31T19:20:21.155Z,66.06
2022-12-31T19:22:50.240Z,65.99
2022-12-31T19:25:20.831Z,65.83
2022-12-31T19:27:49.001Z,66.86
2022-12-31T19:30:18.698Z,67.11
2022-12-31T19:32:46.358Z,67.74
2022-12-31T19:35:16.064Z,67.46
2022-12-31T19:37:44.965Z,67.48
2022-12-31T19:40:16.928Z,68.31
2022-12-31T19:42:45.460Z,67.88
2022-12-31T19:45:17.442Z,67.60
2022-12-31T19:47:46.460Z,67.65
2022-12-31T19:50:15.574Z,68.56
2022-12-31T19:52:44.065Z,68.57
2022-12-31T19:55:15.929Z,68.39
2022-12-31T19:57:43.638Z,68.40
2022-12-31T20:00:14.206Z,68.52
2022-12-31T20:02:42.935Z,68.89
2022-12-31T20:05:11.955Z,68.49
2022-12-31T20:07:39.843Z,68.83
2022-12-31T20:10:08.867Z,68.57
2022-12-31T20:12:44.131Z,69.63
2022-12-31T20:15:12.426Z,68.89
2022-12-31T20:17:40.459Z,69.23
2022-12-31T20:20:09.190Z,68.67
2022-12-31T20:22:36.823Z,67.47
2022-12-31T20:25:04.920Z,68.04
2022-12-31T20:27:33.397Z,68.13
2022-12-31T20:30:03.383Z,68.28
2022-12-31T20:32:32.179Z,68.52
2022-12-31T20:34:59.854Z,67.83
2022-12-31T20:37:27.496Z,68.23
2022-12-31T20:39:55.113Z,68.02
2022-12-31T20:42:22.785Z,68.21
2022-12-31T20:44:50.393Z,69.29
2022-12-31T20:47:19.416Z,68.68
2022-12-31T20:50:10.261Z,69.07
2022-12-31T20:52:34.682Z,68.12
2022-12-31T20:55:02.324Z,67.07
2022-12-31T20:57:33.579Z,67.06
2022-12-31T21:00:01.767Z,68.55
2022-12-31T21:02:41.689Z,67.57
2022-12-31T21:05:10.707Z,66.44
2022-12-31T21:07:38.517Z,67.22
2022-12-31T21:10:07.048Z,67.76
2022-12-31T21:12:43.060Z,68.81
2022-12-31T21:15:11.255Z,69.68
2022-12-31T21:17:40.197Z,69.45
2022-12-31T21:20:09.211Z,70.46
2022-12-31T21:22:36.892Z,72.12
2022-12-31T21:25:05.341Z,70.78
2022-12-31T21:27:33.016Z,71.46
2022-12-31T21:32:49.613Z,72.44
2022-12-31T21:38:06.647Z,73.78
2022-12-31T21:40:35.073Z,73.73
2022-12-31T21:43:02.704Z,73.97
2022-12-31T21:45:30.391Z,74.49
2022-12-31T21:48:19.071Z,75.65
2022-12-31T21:50:48.459Z,75.65
2022-12-31T21:53:21.810Z,75.12
2022-12-31T21:56:11.495Z,77.05
2022-12-31T21:58:41.154Z,78.37
2022-12-31T22:01:33.465Z,78.56
2022-12-31T22:04:02.682Z,78.13
2022-12-31T22:06:30.845Z,78.64
2022-12-31T22:08:58.512Z,78.89
2022-12-31T22:11:28.333Z,78.21
2022-12-31T22:13:56.675Z,78.65
2022-12-31T22:16:24.861Z,79.62
2022-12-31T22:18:55.512Z,80.18
2022-12-31T22:21:26.536Z,81.03
2022-12-31T22:23:55.854Z,80.38
2022-12-31T22:26:26.919Z,81.53
2022-12-31T22:28:58.895Z,81.74
2022-12-31T22:31:29.721Z,82.40
2022-12-31T22:33:58.294Z,81.56
2022-12-31T22:36:27.465Z,80.11
2022-12-31T22:38:58.660Z,80.44
2022-12-31T22:41:29.926Z,81.16
2022-12-31T22:44:03.700Z,80.29
2022-12-31T22:46:33.501Z,80.60
2022-12-31T22:49:02.837Z,82.14
2022-12-31T22:51:54.800Z,81.67
2022-12-31T22:54:20.303Z,81.60
2022-12-31T22:56:47.947Z,81.56
2022-12-31T22:59:15.567Z,82.91
2022-12-31T23:01:43.214Z,82.49
2022-12-31T23:04:12.002Z,81.38
2022-12-31T23:06:44.192Z,82.03
2022-12-31T23:09:30.180Z,81.92
2022-12-31T23:11:57.980Z,82.05
2022-12-31T23:14:43.582Z,82.89
2022-12-31T23:17:33.725Z,83.52
2022-12-31T23:20:19.261Z,83.84
2022-12-31T23:23:07.530Z,82.66
2022-12-31T23:25:36.247Z,83.82
2022-12-31T23:28:04.871Z,83.05
2022-12-31T23:30:33.037Z,83.54
2022-12-31T23:33:00.917Z,82.64
2022-12-31T23:35:29.927Z,84.02
2022-12-31T23:37:58.943Z,83.48
2022-12-31T23:40:34.088Z,83.47
2022-12-31T23:43:03.384Z,83.71
2022-12-31T23:45:33.412Z,84.34
2022-12-31T23:48:01.638Z,83.92
2022-12-31T23:50:29.420Z,85.16
2022-12-31T23:52:57.096Z,84.22
2022-12-31T23:55:26.067Z,84.75
2022-12-31T23:57:53.632Z,84.56
